Time;durP1;ratioP1;P1;durP2;ratioP2;P2;SDS_P1;SDS_P2;PMS_P1;PMS_P2;Temp;Humidity;BMP_temperature;BMP_pressure;BME280_temperature;BME280_humidity;BME280_pressure;Samples;Min_cycle;Max_cycle;Signal;HPM_P1;HPM_P2
2022/01/15 00:01:22;;;;;;;9.07;6.37;;;;;;;3.35;68.67;98839.16;6203440;28;20267;-72
2022/01/15 00:04:24;;;;;;;8.87;5.67;;;;;;;3.37;68.46;98831.28;6204009;28;20327;-71
2022/01/15 00:07:26;;;;;;;8.97;6.10;;;;;;;3.35;69.02;98841.78;6203532;28;20231;-72
2022/01/15 00:10:29;;;;;;;8.93;6.40;;;;;;;3.36;69.05;98840.00;6219188;28;20246;-71
2022/01/15 00:13:31;;;;;;;8.90;6.23;;;;;;;3.35;69.20;98836.56;6208547;28;20323;-72
2022/01/15 00:16:45;;;;;;;8.33;5.47;;;;;;;3.32;69.40;98840.09;6209510;28;20274;-72
2022/01/15 00:19:49;;;;;;;8.83;5.70;;;;;;;3.35;69.43;98846.97;6209286;28;20230;-71
2022/01/15 00:22:54;;;;;;;10.47;6.00;;;;;;;3.37;69.28;98847.78;6199115;28;20713;-71
2022/01/15 00:25:56;;;;;;;9.63;5.93;;;;;;;3.36;69.49;98856.53;6216709;28;20242;-71
2022/01/15 00:28:58;;;;;;;8.43;5.10;;;;;;;3.38;69.51;98844.28;6224163;28;20245;-71
2022/01/15 00:32:01;;;;;;;6.87;4.70;;;;;;;3.36;69.55;98833.03;6207222;28;20236;-71
2022/01/15 00:35:05;;;;;;;7.63;6.00;;;;;;;3.36;69.51;98837.41;6208569;28;20229;-71
2022/01/15 00:38:07;;;;;;;8.10;5.33;;;;;;;3.34;69.73;98846.13;6207822;28;20234;-71
2022/01/15 00:41:09;;;;;;;7.30;5.10;;;;;;;3.36;69.55;98848.69;6207296;28;20254;-72
2022/01/15 00:44:11;;;;;;;7.37;5.13;;;;;;;3.36;69.72;98848.69;6222794;28;20609;-72
2022/01/15 00:47:13;;;;;;;8.90;5.80;;;;;;;3.35;70.29;98860.03;6206995;28;20325;-72
2022/01/15 00:50:15;;;;;;;8.90;5.23;;;;;;;3.33;70.02;98852.25;6207346;28;20231;-72
2022/01/15 00:53:17;;;;;;;8.50;5.10;;;;;;;3.32;70.31;98863.59;6206421;28;20281;-72
2022/01/15 00:56:19;;;;;;;7.23;5.47;;;;;;;3.30;70.84;98854.09;6207066;28;20239;-71
2022/01/15 00:59:21;;;;;;;7.77;5.47;;;;;;;3.31;70.92;98864.47;6207562;28;20734;-72
2022/01/15 01:02:23;;;;;;;8.00;5.87;;;;;;;3.31;70.74;98866.25;6222528;28;20231;-72
2022/01/15 01:05:25;;;;;;;8.43;5.23;;;;;;;3.31;70.83;98864.47;6207143;28;20217;-71
2022/01/15 01:08:27;;;;;;;7.73;5.40;;;;;;;3.28;70.90;98858.53;6207800;28;20237;-72
2022/01/15 01:11:42;;;;;;;8.97;6.50;;;;;;;3.29;71.24;98875.91;6221773;28;20229;-71
2022/01/15 01:22:27;;;;;;;11.03;6.90;;;;;;;3.23;71.37;98852.59;6207337;28;20593;-73
2022/01/15 01:25:05;;;;;;;11.43;6.20;;;;;;;3.22;71.38;98848.28;6206846;28;20230;-72
2022/01/15 01:28:15;;;;;;;9.03;5.47;;;;;;;3.20;71.61;98856.16;6204922;28;20316;-72
2022/01/15 01:31:26;;;;;;;9.93;6.43;;;;;;;3.19;71.52;98856.22;6207089;28;20246;-73
2022/01/15 01:34:31;;;;;;;10.83;6.40;;;;;;;3.17;71.25;98851.06;6206327;28;20233;-72
2022/01/15 01:37:39;;;;;;;7.90;5.70;;;;;;;3.19;70.79;98853.63;6206356;28;20240;-69
2022/01/15 01:40:44;;;;;;;6.97;5.33;;;;;;;3.20;70.84;98857.91;6206105;28;20731;-73
2022/01/15 01:43:59;;;;;;;8.83;5.87;;;;;;;3.20;70.34;98858.75;6205280;28;20235;-72
2022/01/15 01:47:05;;;;;;;6.63;4.97;;;;;;;3.20;70.19;98853.53;6204839;28;20219;-72
2022/01/15 01:50:14;;;;;;;7.23;4.90;;;;;;;3.21;69.93;98849.19;6203478;28;20291;-73
2022/01/15 01:53:16;;;;;;;7.23;4.70;;;;;;;3.25;69.87;98851.66;6206214;28;20221;-71
2022/01/15 01:56:19;;;;;;;5.93;4.40;;;;;;;3.31;69.57;98859.25;6220909;28;20289;-72
2022/01/15 01:59:21;;;;;;;7.40;5.13;;;;;;;3.36;69.75;98856.53;6206532;28;20233;-72
2022/01/15 02:02:23;;;;;;;8.03;5.30;;;;;;;3.31;70.18;98845.38;6205977;28;20239;-73
2022/01/15 02:05:25;;;;;;;8.07;5.47;;;;;;;3.29;69.82;98839.38;6206700;28;20248;-72
2022/01/15 02:08:29;;;;;;;7.10;5.17;;;;;;;3.23;69.80;98843.00;6191328;28;20225;-72
2022/01/15 02:11:31;;;;;;;6.27;4.50;;;;;;;3.20;69.62;98842.25;6221317;28;20230;-72
2022/01/15 02:14:33;;;;;;;5.20;3.53;;;;;;;3.23;69.08;98831.72;6206196;28;20213;-72
2022/01/15 02:17:37;;;;;;;6.93;4.30;;;;;;;3.27;68.79;98822.91;6205077;28;20712;-73
2022/01/15 02:24:00;;;;;;;7.57;4.03;;;;;;;3.30;67.66;98823.66;6196276;28;20242;-71
2022/01/15 02:27:02;;;;;;;5.93;3.43;;;;;;;3.30;67.33;98831.47;6202167;28;20226;-72
2022/01/15 02:30:05;;;;;;;4.90;3.53;;;;;;;3.35;66.14;98820.91;6203429;28;20225;-73
2022/01/15 02:33:08;;;;;;;5.27;3.90;;;;;;;3.35;66.08;98820.91;6202663;28;20210;-72
2022/01/15 02:36:16;;;;;;;6.23;3.37;;;;;;;3.37;66.14;98828.69;6204486;28;20293;-71
2022/01/15 02:39:18;;;;;;;5.03;3.53;;;;;;;3.42;65.44;98825.00;6205937;28;20209;-72
2022/01/15 02:42:20;;;;;;;5.47;3.83;;;;;;;3.41;65.55;98835.47;6205481;28;20235;-71
2022/01/15 02:45:22;;;;;;;4.03;3.13;;;;;;;3.41;65.27;98823.28;6219953;28;20243;-72
2022/01/15 02:48:27;;;;;;;4.20;2.80;;;;;;;3.41;65.32;98830.25;6205176;28;20241;-72
2022/01/15 02:51:33;;;;;;;5.03;3.40;;;;;;;3.41;65.60;98835.47;6203235;28;20238;-71
2022/01/15 02:54:35;;;;;;;4.37;3.53;;;;;;;3.39;65.77;98827.72;6195145;28;20235;-72
2022/01/15 02:57:38;;;;;;;5.37;3.40;;;;;;;3.36;65.27;98835.66;6200313;28;20237;-72
2022/01/15 03:00:41;;;;;;;4.40;3.23;;;;;;;3.37;65.34;98837.34;6204635;28;20246;-72
2022/01/15 03:03:43;;;;;;;10.20;3.80;;;;;;;3.33;65.26;98834.00;6204935;28;20244;-71
2022/01/15 03:06:46;;;;;;;4.20;3.33;;;;;;;3.32;65.22;98832.28;6204848;28;20320;-72
2022/01/15 03:09:47;;;;;;;4.73;3.73;;;;;;;3.31;65.43;98842.75;6218838;28;20244;-72
2022/01/15 03:12:51;;;;;;;4.83;3.50;;;;;;;3.27;65.52;98839.41;6204695;28;20361;-71
2022/01/15 03:15:53;;;;;;;4.67;3.40;;;;;;;3.26;65.39;98848.16;6204949;28;20226;-72
2022/01/15 03:18:55;;;;;;;4.50;3.40;;;;;;;3.27;65.82;98844.63;6204787;28;20237;-72
2022/01/15 03:21:57;;;;;;;6.03;3.97;;;;;;;3.23;65.86;98843.00;6203764;28;20230;-71
2022/01/15 03:24:59;;;;;;;6.13;4.07;;;;;;;3.25;65.85;98838.59;6202921;28;20245;-72
2022/01/15 03:28:01;;;;;;;6.00;4.00;;;;;;;3.26;65.94;98839.47;6203131;28;20230;-72
2022/01/15 03:31:03;;;;;;;5.93;3.80;;;;;;;3.24;65.89;98836.03;6204623;28;20736;-72
2022/01/15 03:34:06;;;;;;;6.07;4.07;;;;;;;3.22;65.83;98838.69;6202367;28;20237;-72
2022/01/15 03:37:08;;;;;;;4.90;3.53;;;;;;;3.20;66.30;98850.94;6205810;28;20231;-72
2022/01/15 03:40:13;;;;;;;6.27;4.10;;;;;;;3.20;66.07;98845.72;6204432;28;20237;-72
2022/01/15 03:43:15;;;;;;;4.13;3.30;;;;;;;3.21;65.55;98843.97;6204210;28;20244;-72
2022/01/15 03:46:17;;;;;;;7.10;4.30;;;;;;;3.18;65.29;98839.72;6202990;28;20232;-71
2022/01/15 03:49:19;;;;;;;7.10;4.27;;;;;;;3.17;65.44;98842.38;6204881;28;21050;-71
2022/01/15 03:52:21;;;;;;;5.87;3.80;;;;;;;3.15;65.34;98852.00;6203585;28;20229;-71
2022/01/15 03:55:25;;;;;;;5.03;3.40;;;;;;;3.17;64.94;98844.97;6201204;28;20237;-72
2022/01/15 03:58:27;;;;;;;5.23;3.77;;;;;;;3.16;64.96;98849.34;6204177;28;20291;-72
2022/01/15 04:01:29;;;;;;;4.33;3.50;;;;;;;3.15;65.40;98846.78;6204531;28;20226;-71
2022/01/15 04:04:31;;;;;;;6.53;3.70;;;;;;;3.13;65.75;98849.44;6204099;28;20749;-72
2022/01/15 04:07:33;;;;;;;5.77;3.80;;;;;;;3.15;65.42;98849.38;6203103;28;20233;-72
2022/01/15 04:10:35;;;;;;;5.13;3.93;;;;;;;3.13;65.49;98857.25;6204918;28;20231;-71
2022/01/15 04:13:37;;;;;;;5.70;3.70;;;;;;;3.14;65.70;98858.97;6218321;28;20228;-72
2022/01/15 04:16:39;;;;;;;6.70;4.83;;;;;;;3.11;66.15;98864.25;6203854;28;20232;-72
2022/01/15 04:19:41;;;;;;;7.90;5.63;;;;;;;3.11;66.01;98868.63;6204286;28;20718;-71
2022/01/15 04:22:43;;;;;;;7.07;4.93;;;;;;;3.09;66.02;98865.25;6219181;28;20744;-71
2022/01/15 04:25:45;;;;;;;8.77;5.67;;;;;;;3.07;66.19;98862.66;6202891;28;20778;-72
2022/01/15 04:28:47;;;;;;;8.43;5.67;;;;;;;3.04;66.57;98867.13;6203452;28;20235;-71
2022/01/15 04:31:50;;;;;;;9.20;5.17;;;;;;;3.01;66.41;98859.38;6203343;28;20232;-71
2022/01/15 04:34:52;;;;;;;9.07;5.43;;;;;;;2.98;66.76;98860.34;6203570;28;20235;-72
2022/01/15 04:38:02;;;;;;;7.53;5.30;;;;;;;2.99;66.45;98872.50;6218147;28;20241;-72
2022/01/15 04:41:05;;;;;;;8.80;5.67;;;;;;;2.99;66.54;98864.66;6203353;28;20243;-72
2022/01/15 04:44:08;;;;;;;8.23;5.27;;;;;;;2.99;66.48;98867.28;6219243;28;20250;-71
2022/01/15 04:47:10;;;;;;;7.17;5.13;;;;;;;3.01;66.37;98862.84;6203470;28;20704;-72
2022/01/15 04:50:16;;;;;;;7.97;5.00;;;;;;;3.03;66.52;98866.25;6192713;28;20231;-72
2022/01/15 04:53:18;;;;;;;9.17;4.77;;;;;;;3.02;66.08;98861.09;6185095;28;20228;-71
2022/01/15 04:56:20;;;;;;;8.00;4.97;;;;;;;3.03;66.06;98874.09;6201860;28;20235;-71
2022/01/15 04:59:23;;;;;;;7.67;4.93;;;;;;;3.02;65.98;98869.78;6207760;28;20226;-71
2022/01/15 05:02:25;;;;;;;8.47;5.20;;;;;;;3.00;66.19;98866.34;6221759;28;20234;-72
2022/01/15 05:05:28;;;;;;;7.93;5.20;;;;;;;3.00;66.14;98870.72;6205930;28;20254;-73
2022/01/15 05:08:31;;;;;;;8.30;5.03;;;;;;;2.99;66.30;98867.28;6206933;28;20738;-72
2022/01/15 05:11:47;;;;;;;8.23;5.47;;;;;;;2.97;66.25;98871.69;6206750;28;20242;-72
2022/01/15 05:14:49;;;;;;;6.73;5.10;;;;;;;2.96;66.67;98867.38;6207475;28;20230;-72
2022/01/15 05:17:52;;;;;;;7.30;4.77;;;;;;;2.93;66.44;98864.84;6222295;28;20239;-72
2022/01/15 05:20:53;;;;;;;8.70;5.77;;;;;;;2.91;66.82;98871.84;6208116;28;20237;-72
2022/01/15 05:23:55;;;;;;;8.97;5.37;;;;;;;2.87;66.48;98878.94;6222035;28;20647;-71
2022/01/15 05:26:57;;;;;;;6.77;4.93;;;;;;;2.85;66.40;98869.44;6205766;28;20263;-72
2022/01/15 05:29:59;;;;;;;8.07;4.67;;;;;;;2.84;65.75;98868.59;6206562;28;20230;-72
2022/01/15 05:33:01;;;;;;;7.90;4.40;;;;;;;2.86;65.07;98871.16;6207685;28;20236;-71
2022/01/15 05:36:04;;;;;;;5.80;3.40;;;;;;;2.89;65.46;98877.13;6206891;28;20246;-72
2022/01/15 05:39:06;;;;;;;5.87;3.73;;;;;;;2.90;64.92;98880.56;6206354;28;20706;-71
2022/01/15 05:42:09;;;;;;;5.37;3.80;;;;;;;2.91;64.52;98877.06;6188399;28;20223;-71
2022/01/15 05:45:11;;;;;;;5.47;3.27;;;;;;;2.91;64.18;98888.34;6206737;28;20229;-72
2022/01/15 05:48:13;;;;;;;5.53;3.57;;;;;;;2.97;63.70;98885.56;6205434;28;20220;-72
2022/01/15 05:51:15;;;;;;;5.97;3.50;;;;;;;2.97;63.72;98896.00;6207136;28;20217;-72
2022/01/15 05:54:17;;;;;;;5.33;3.33;;;;;;;2.97;63.80;98901.22;6207139;28;20207;-72
2022/01/15 05:57:24;;;;;;;6.30;3.20;;;;;;;2.97;63.82;98897.75;6221526;28;20225;-71
2022/01/15 06:00:26;;;;;;;5.60;3.33;;;;;;;2.96;63.82;98903.88;6206892;28;20222;-72
2022/01/15 06:03:28;;;;;;;6.27;3.53;;;;;;;2.97;63.55;98885.56;6205413;28;20230;-72
2022/01/15 06:06:30;;;;;;;5.17;3.03;;;;;;;3.02;63.12;98889.78;6205961;28;20716;-71
2022/01/15 06:09:32;;;;;;;4.80;3.30;;;;;;;3.02;63.45;98897.59;6205358;28;20226;-71
2022/01/15 06:12:42;;;;;;;6.70;3.00;;;;;;;3.05;63.21;98897.50;6205807;28;20226;-72
2022/01/15 06:15:44;;;;;;;3.53;3.03;;;;;;;3.06;63.04;98904.44;6205786;28;20692;-72
2022/01/15 06:18:46;;;;;;;4.30;3.17;;;;;;;3.06;63.21;98897.47;6204937;28;20223;-72
2022/01/15 06:21:48;;;;;;;4.00;2.73;;;;;;;3.05;63.00;98894.91;6205991;28;20265;-72
2022/01/15 06:24:50;;;;;;;3.77;2.80;;;;;;;3.02;63.07;98893.25;6206189;28;20242;-72
2022/01/15 06:27:52;;;;;;;5.43;3.10;;;;;;;3.07;63.04;98900.94;6206243;28;20227;-72
2022/01/15 06:30:54;;;;;;;4.63;2.70;;;;;;;3.05;62.94;98898.38;6205289;28;20223;-72
2022/01/15 06:33:58;;;;;;;4.97;3.10;;;;;;;3.04;63.36;98899.25;6220748;28;20225;-72
2022/01/15 06:37:00;;;;;;;3.97;3.17;;;;;;;3.05;62.98;98895.75;6204154;28;20239;-72
2022/01/15 06:40:04;;;;;;;4.80;3.40;;;;;;;3.03;63.37;98902.78;6205459;28;20692;-71
2022/01/15 06:43:06;;;;;;;3.90;3.20;;;;;;;2.99;63.55;98906.38;6205518;28;20227;-71
2022/01/15 06:46:08;;;;;;;4.70;3.27;;;;;;;2.96;63.67;98909.94;6203524;28;20238;-72
2022/01/15 06:49:11;;;;;;;4.80;3.30;;;;;;;2.95;63.68;98913.44;6204901;28;20238;-71
2022/01/15 06:52:13;;;;;;;5.03;3.47;;;;;;;2.94;63.89;98914.34;6204583;28;20234;-72
2022/01/15 06:55:16;;;;;;;5.67;3.63;;;;;;;2.93;64.20;98915.22;6204924;28;20242;-72
2022/01/15 06:58:19;;;;;;;4.37;3.43;;;;;;;2.95;64.11;98915.19;6205246;28;20231;-71
2022/01/15 07:01:23;;;;;;;5.53;3.83;;;;;;;2.95;64.03;98921.25;6204339;28;20238;-71
2022/01/15 07:04:25;;;;;;;5.83;3.60;;;;;;;2.96;63.86;98922.97;6205027;28;20234;-72
2022/01/15 07:07:27;;;;;;;5.40;3.97;;;;;;;2.97;63.94;98926.44;6205574;28;20234;-72
2022/01/15 07:10:30;;;;;;;6.20;3.10;;;;;;;2.98;63.88;98930.75;6219893;28;20253;-71
2022/01/15 07:13:33;;;;;;;6.17;3.47;;;;;;;2.99;63.91;98929.84;6203533;28;20244;-72
2022/01/15 07:16:35;;;;;;;5.00;3.53;;;;;;;2.99;64.77;98927.25;6204929;28;20230;-71
2022/01/15 07:19:37;;;;;;;4.90;3.37;;;;;;;3.03;63.97;98943.63;6204759;28;20607;-71
2022/01/15 07:22:40;;;;;;;5.90;3.60;;;;;;;3.04;63.74;98945.34;6204952;28;20243;-72
2022/01/15 07:25:42;;;;;;;4.80;3.13;;;;;;;3.06;63.96;98936.59;6205128;28;20231;-72
2022/01/15 07:28:44;;;;;;;4.40;3.33;;;;;;;3.08;63.71;98939.16;6204643;28;20225;-72
2022/01/15 07:31:47;;;;;;;5.03;3.67;;;;;;;3.09;63.63;98933.03;6202968;28;20236;-72
2022/01/15 07:34:49;;;;;;;6.37;3.77;;;;;;;3.12;63.54;98938.16;6203299;28;20235;-72
2022/01/15 07:37:51;;;;;;;5.57;3.50;;;;;;;3.15;63.67;98940.66;6220004;28;20269;-72
2022/01/15 07:40:56;;;;;;;5.47;3.53;;;;;;;3.16;63.19;98939.78;6202888;28;20240;-72
2022/01/15 07:43:57;;;;;;;5.67;3.67;;;;;;;3.16;62.86;98929.34;6203247;28;20394;-72
2022/01/15 07:47:00;;;;;;;6.27;3.90;;;;;;;3.16;63.32;98924.13;6204368;28;20275;-72
2022/01/15 07:50:04;;;;;;;6.83;4.40;;;;;;;3.18;63.74;98922.31;6194563;28;20332;-72
2022/01/15 07:53:06;;;;;;;5.43;4.07;;;;;;;3.20;63.21;98920.50;6204440;28;20224;-72
2022/01/15 07:56:08;;;;;;;5.60;4.00;;;;;;;3.20;62.90;98916.13;6204112;28;20724;-72
2022/01/15 07:59:10;;;;;;;7.03;4.20;;;;;;;3.22;62.82;98922.16;6203705;28;20235;-72
2022/01/15 08:02:12;;;;;;;5.30;3.73;;;;;;;3.25;62.77;98921.22;6204073;28;20580;-72
2022/01/15 08:05:14;;;;;;;6.33;3.97;;;;;;;3.28;62.96;98919.38;6204455;28;20263;-71
2022/01/15 08:08:17;;;;;;;7.07;4.53;;;;;;;3.32;62.45;98928.81;6202880;28;20240;-72
2022/01/15 08:11:18;;;;;;;6.27;4.37;;;;;;;3.36;62.41;98918.28;6202142;28;20348;-71
2022/01/15 08:14:20;;;;;;;5.63;3.47;;;;;;;3.43;62.32;98923.25;6203297;28;20280;-72
2022/01/15 08:17:22;;;;;;;5.33;3.53;;;;;;;3.47;61.87;98917.03;6202211;28;20229;-72
2022/01/15 08:20:24;;;;;;;4.17;3.53;;;;;;;3.51;62.22;98923.00;6200991;28;20599;-72
2022/01/15 08:23:27;;;;;;;4.67;3.70;;;;;;;3.55;61.12;98915.03;6202972;28;20235;-71
2022/01/15 08:26:29;;;;;;;5.50;3.60;;;;;;;3.59;61.44;98928.84;6201823;28;20243;-71
2022/01/15 08:29:32;;;;;;;5.23;3.63;;;;;;;3.63;61.07;98930.44;6203063;28;20237;-71
2022/01/15 08:32:34;;;;;;;5.77;3.80;;;;;;;3.66;60.70;98926.00;6205317;28;20237;-73
2022/01/15 08:35:36;;;;;;;5.43;3.20;;;;;;;3.74;61.15;98930.09;6206380;28;20562;-72
2022/01/15 08:38:38;;;;;;;5.47;3.43;;;;;;;3.77;60.44;98932.63;6208366;28;20225;-72
2022/01/15 08:41:57;;;;;;;4.40;3.20;;;;;;;3.78;60.53;98939.56;6209075;28;20264;-71
2022/01/15 08:44:59;;;;;;;4.53;3.03;;;;;;;3.88;59.93;98941.81;6223790;28;20271;-72
2022/01/15 08:48:01;;;;;;;3.80;2.87;;;;;;;3.94;59.30;98936.38;6205361;28;20240;-71
2022/01/15 08:51:03;;;;;;;4.57;3.20;;;;;;;3.98;58.89;98943.22;6220830;28;20222;-72
2022/01/15 08:54:05;;;;;;;4.23;3.13;;;;;;;4.09;58.70;98933.22;6206864;28;20585;-72
2022/01/15 08:57:07;;;;;;;4.23;2.83;;;;;;;4.17;58.71;98938.22;6222271;28;20283;-70
2022/01/15 09:00:14;;;;;;;4.43;3.00;;;;;;;4.25;58.91;98933.56;6206542;28;20230;-71
2022/01/15 09:03:16;;;;;;;3.33;2.70;;;;;;;4.34;59.22;98935.84;6208109;28;20235;-72
2022/01/15 09:06:18;;;;;;;3.47;2.80;;;;;;;4.38;58.17;98937.47;6206839;28;20688;-72
2022/01/15 09:09:20;;;;;;;3.63;2.80;;;;;;;4.43;57.39;98934.66;6207896;28;20253;-72
2022/01/15 09:12:22;;;;;;;4.37;2.80;;;;;;;4.48;57.54;98930.16;6206377;28;20231;-71
2022/01/15 09:15:24;;;;;;;4.10;2.83;;;;;;;4.59;57.21;98935.00;6206246;28;20232;-72
2022/01/15 09:18:29;;;;;;;4.00;2.93;;;;;;;4.65;56.07;98933.00;6206801;28;20228;-71
2022/01/15 09:21:31;;;;;;;4.87;3.10;;;;;;;4.67;56.62;98944.25;6207100;28;20231;-72
2022/01/15 09:24:33;;;;;;;3.97;2.90;;;;;;;4.71;56.67;98942.38;6206197;28;20244;-71
2022/01/15 09:30:56;;;;;;;3.83;2.47;;;;;;;4.88;55.19;98933.91;6206879;28;20241;-72
2022/01/15 09:33:58;;;;;;;2.97;2.20;;;;;;;4.80;55.67;98934.19;6206734;28;20231;-72
2022/01/15 09:37:01;;;;;;;4.63;2.77;;;;;;;5.05;56.04;98936.75;6204305;28;20239;-72
2022/01/15 09:40:04;;;;;;;4.13;2.93;;;;;;;5.22;55.60;98936.09;6206815;28;20220;-72
2022/01/15 09:43:06;;;;;;;4.10;2.60;;;;;;;5.66;54.75;98929.97;6205194;28;20251;-72
2022/01/15 09:46:09;;;;;;;4.13;2.30;;;;;;;5.83;53.99;98934.50;6204976;28;21767;-72
2022/01/15 09:49:14;;;;;;;3.43;2.50;;;;;;;5.75;52.73;98926.13;6220897;28;20244;-73
2022/01/15 09:52:17;;;;;;;5.50;2.50;;;;;;;5.69;53.26;98932.44;6206619;28;20225;-73
2022/01/15 09:55:21;;;;;;;3.57;2.20;;;;;;;5.70;53.47;98936.75;6205139;28;20237;-72
2022/01/15 09:58:23;;;;;;;2.90;2.30;;;;;;;5.38;52.65;98927.59;6222005;28;20236;-72
2022/01/15 10:01:29;;;;;;;4.07;2.00;;;;;;;5.34;53.85;98926.00;6205485;28;20236;-71
2022/01/15 10:04:32;;;;;;;3.13;2.33;;;;;;;5.45;54.04;98930.81;6205956;28;20483;-72
2022/01/15 10:07:34;;;;;;;3.07;2.13;;;;;;;5.32;52.80;98930.44;6206008;28;20325;-72
2022/01/15 10:10:39;;;;;;;4.07;2.20;;;;;;;5.45;52.57;98925.59;6205270;28;20230;-72
2022/01/15 10:13:44;;;;;;;3.50;2.23;;;;;;;5.55;52.57;98930.41;6205862;28;20236;-72
2022/01/15 10:16:46;;;;;;;3.50;2.00;;;;;;;5.46;52.65;98920.28;6205341;28;20221;-72
2022/01/15 10:19:49;;;;;;;3.93;2.47;;;;;;;5.57;53.59;98917.25;6205806;28;20228;-72
2022/01/15 10:22:52;;;;;;;3.73;2.60;;;;;;;5.88;51.94;98924.75;6205347;28;20276;-72
2022/01/15 10:26:20;;;;;;;2.67;2.13;;;;;;;6.14;51.01;98914.00;6204889;28;20576;-72
2022/01/15 10:29:22;;;;;;;3.67;2.30;;;;;;;6.13;51.64;98907.06;6205282;28;20240;-71
2022/01/15 10:32:26;;;;;;;2.93;2.03;;;;;;;6.02;50.96;98900.56;6205784;28;20232;-72
2022/01/15 10:35:42;;;;;;;3.27;2.70;;;;;;;5.84;52.30;98905.63;6219735;28;20221;-72
2022/01/15 10:38:44;;;;;;;3.03;2.07;;;;;;;5.64;51.38;98908.22;6220142;28;20584;-72
2022/01/15 10:41:48;;;;;;;3.83;2.20;;;;;;;5.54;51.83;98910.38;6219010;28;20335;-72
2022/01/15 10:44:55;;;;;;;3.97;1.90;;;;;;;5.85;51.57;98898.63;6188147;28;20228;-73
2022/01/15 10:48:01;;;;;;;2.47;2.10;;;;;;;6.03;50.82;98899.66;6205330;28;20235;-72
2022/01/15 10:51:06;;;;;;;3.37;2.03;;;;;;;6.13;51.43;98898.34;6205016;28;20699;-73
2022/01/15 10:54:08;;;;;;;3.23;2.00;;;;;;;6.24;50.71;98894.34;6202971;28;20208;-72
2022/01/15 10:57:10;;;;;;;4.67;2.80;;;;;;;6.41;49.83;98879.63;6204949;28;20229;-72
2022/01/15 11:00:18;;;;;;;4.80;2.50;;;;;;;6.44;49.88;98875.13;6219594;28;20594;-72
2022/01/15 11:03:22;;;;;;;4.37;2.83;;;;;;;6.35;49.65;98870.28;6203503;28;20224;-74
2022/01/15 11:06:39;;;;;;;3.13;2.30;;;;;;;6.38;50.22;98870.16;6204541;28;20224;-73
2022/01/15 11:09:46;;;;;;;2.97;2.37;;;;;;;6.46;50.66;98870.66;6203081;28;20229;-72
2022/01/15 11:12:48;;;;;;;4.90;2.37;;;;;;;6.45;50.52;98863.72;6204248;28;20229;-72
2022/01/15 11:15:54;;;;;;;3.00;2.30;;;;;;;6.27;49.85;98868.00;6204398;28;20229;-73
2022/01/15 11:18:58;;;;;;;3.77;2.60;;;;;;;6.16;50.10;98858.91;6204270;28;20221;-73
2022/01/15 11:22:02;;;;;;;4.83;2.13;;;;;;;6.22;50.45;98846.38;6202655;28;20584;-72
2022/01/15 11:25:05;;;;;;;2.87;2.27;;;;;;;6.30;50.74;98846.88;6204089;28;20366;-72
2022/01/15 11:28:07;;;;;;;4.20;2.30;;;;;;;6.29;50.16;98836.47;6205546;28;20233;-73
2022/01/15 11:31:14;;;;;;;5.00;2.83;;;;;;;6.32;50.33;98836.31;6205643;28;20235;-72
2022/01/15 11:34:19;;;;;;;4.20;2.57;;;;;;;6.12;49.48;98837.22;6204691;28;20263;-72
2022/01/15 11:37:22;;;;;;;3.50;2.63;;;;;;;5.99;50.57;98833.41;6203708;28;20280;-72
2022/01/15 11:40:35;;;;;;;6.17;3.17;;;;;;;5.82;51.27;98828.88;6203606;28;20240;-72
2022/01/15 11:43:39;;;;;;;5.17;2.77;;;;;;;5.95;50.45;98831.84;6202639;28;20245;-72
2022/01/15 11:46:57;;;;;;;3.43;2.53;;;;;;;5.84;51.07;98820.94;6203388;28;20224;-72
2022/01/15 11:50:20;;;;;;;5.03;2.90;;;;;;;6.12;50.85;98804.91;6203160;28;20264;-71
2022/01/15 11:53:48;;;;;;;3.83;2.30;;;;;;;6.40;50.71;98815.84;6202239;28;20241;-71
2022/01/15 11:56:51;;;;;;;4.07;2.40;;;;;;;6.62;50.78;98819.19;6203045;28;20602;-72
2022/01/15 11:59:56;;;;;;;4.00;2.57;;;;;;;6.59;49.94;98814.09;6203561;28;20237;-72
2022/01/15 12:03:07;;;;;;;5.17;2.90;;;;;;;6.76;49.09;98802.84;6203668;28;20598;-71
2022/01/15 12:06:09;;;;;;;4.47;2.47;;;;;;;6.93;49.69;98799.41;6203286;28;20239;-72
2022/01/15 12:09:41;;;;;;;5.40;2.70;;;;;;;7.05;49.04;98806.69;6208045;28;20214;-72
2022/01/15 12:12:45;;;;;;;5.40;2.50;;;;;;;7.07;48.27;98809.25;6207479;28;20723;-71
2022/01/15 12:16:25;;;;;;;5.53;2.83;;;;;;;7.24;48.09;98802.25;6207047;28;20315;-72
2022/01/15 12:19:36;;;;;;;4.20;2.63;;;;;;;7.62;47.21;98791.63;6199379;28;20601;-72
2022/01/15 12:22:44;;;;;;;4.13;2.87;;;;;;;7.82;46.82;98782.72;6199657;28;20719;-72
2022/01/15 12:25:48;;;;;;;5.30;2.80;;;;;;;7.78;47.38;98771.53;6198872;28;20238;-72
2022/01/15 12:28:50;;;;;;;3.60;2.70;;;;;;;7.93;46.70;98785.63;6208463;28;20687;-72
2022/01/15 12:31:52;;;;;;;2.40;2.10;;;;;;;8.03;46.45;98777.19;6208128;28;20233;-72
2022/01/15 12:34:56;;;;;;;4.10;2.47;;;;;;;7.62;47.16;98770.59;6207659;28;20573;-71
2022/01/15 12:38:11;;;;;;;5.03;2.80;;;;;;;7.40;47.05;98782.19;6207920;28;20221;-72
2022/01/15 12:41:17;;;;;;;3.70;3.13;;;;;;;7.63;46.85;98785.44;6208004;28;20268;-72
2022/01/15 12:44:21;;;;;;;3.83;3.00;;;;;;;7.89;47.03;98779.69;6223791;28;20237;-71
2022/01/15 12:47:23;;;;;;;3.83;3.03;;;;;;;7.77;46.44;98775.09;6207281;28;20220;-71
2022/01/15 12:50:26;;;;;;;5.47;3.50;;;;;;;7.79;45.78;98771.44;6222316;28;20602;-72
2022/01/15 12:53:33;;;;;;;5.67;3.50;;;;;;;7.67;46.17;98774.72;6207914;28;20253;-72
2022/01/15 12:56:39;;;;;;;4.63;2.63;;;;;;;8.05;46.73;98774.50;6207912;28;20606;-72
2022/01/15 12:59:41;;;;;;;3.07;2.17;;;;;;;8.91;45.18;98757.53;6206591;28;20681;-71
2022/01/15 13:02:43;;;;;;;7.13;2.50;;;;;;;10.01;42.79;98755.41;6205525;28;20229;-71
2022/01/15 13:05:55;;;;;;;3.20;2.20;;;;;;;11.18;40.33;98750.63;6207271;28;20588;-72
2022/01/15 13:08:59;;;;;;;2.20;2.00;;;;;;;12.73;37.32;98749.66;6222486;28;20597;-72
2022/01/15 13:12:01;;;;;;;2.93;2.27;;;;;;;14.14;34.52;98743.47;6208112;28;20215;-72
2022/01/15 13:15:03;;;;;;;3.27;2.20;;;;;;;15.05;32.22;98729.03;6206373;28;20645;-71
2022/01/15 13:18:17;;;;;;;2.33;1.90;;;;;;;12.70;34.97;98736.63;6198541;28;20636;-72
2022/01/15 13:21:21;;;;;;;2.63;2.03;;;;;;;10.51;39.94;98743.56;6202291;28;20224;-73
2022/01/15 13:24:25;;;;;;;3.17;2.37;;;;;;;8.84;42.91;98742.09;6206592;28;20755;-71
2022/01/15 13:27:27;;;;;;;3.30;2.13;;;;;;;7.70;46.17;98747.41;6205857;28;20633;-73
2022/01/15 13:30:29;;;;;;;3.27;2.37;;;;;;;7.08;47.97;98746.19;6207012;28;20626;-72
2022/01/15 13:33:44;;;;;;;2.67;2.30;;;;;;;6.68;48.95;98746.41;6205057;28;20567;-72
2022/01/15 13:36:47;;;;;;;2.97;2.37;;;;;;;6.40;49.95;98741.59;6205785;28;20628;-71
2022/01/15 13:39:49;;;;;;;3.63;2.07;;;;;;;6.17;50.68;98742.66;6220718;28;20732;-72
2022/01/15 13:42:51;;;;;;;4.40;2.50;;;;;;;5.89;51.42;98737.78;6222226;28;20221;-72
2022/01/15 13:46:07;;;;;;;2.87;2.37;;;;;;;5.72;52.25;98743.75;6221005;28;20623;-72
2022/01/15 13:49:14;;;;;;;2.00;1.60;;;;;;;5.60;51.78;98746.91;6207832;28;20229;-72
2022/01/15 13:55:46;;;;;;;3.30;1.70;;;;;;;5.24;53.18;98746.72;6207711;28;20250;-72
2022/01/15 13:58:54;;;;;;;2.87;1.90;;;;;;;5.05;53.97;98744.00;6206278;28;20597;-71
2022/01/15 14:01:57;;;;;;;4.27;2.37;;;;;;;4.89;54.13;98747.31;6205775;28;20315;-71
2022/01/15 14:05:17;;;;;;;4.80;2.70;;;;;;;4.65;54.42;98743.91;6204320;28;20239;-71
2022/01/15 14:08:23;;;;;;;3.73;2.43;;;;;;;4.48;55.64;98733.25;6220075;28;20283;-72
2022/01/15 14:11:26;;;;;;;4.60;2.63;;;;;;;4.33;55.87;98737.31;6207371;28;20640;-71
2022/01/15 14:14:30;;;;;;;4.10;2.30;;;;;;;4.21;56.25;98743.84;6205728;28;20208;-71
2022/01/15 14:17:35;;;;;;;4.77;2.40;;;;;;;3.98;56.95;98733.44;6205852;28;20604;-71
2022/01/15 14:20:51;;;;;;;3.80;2.27;;;;;;;3.77;58.01;98740.28;6204993;28;20324;-71
2022/01/15 14:23:55;;;;;;;3.17;2.20;;;;;;;3.55;58.85;98744.53;6205902;28;20595;-72
2022/01/15 14:26:57;;;;;;;2.77;1.60;;;;;;;3.38;59.37;98742.53;6204872;28;20231;-72
2022/01/15 14:29:59;;;;;;;3.70;2.10;;;;;;;3.32;59.50;98738.34;6204155;28;20242;-71
2022/01/15 14:33:02;;;;;;;4.60;2.17;;;;;;;3.27;59.70;98734.22;6204293;28;20246;-71
2022/01/15 14:36:09;;;;;;;3.53;2.07;;;;;;;3.20;59.86;98730.94;6203895;28;20586;-71
2022/01/15 14:39:11;;;;;;;3.83;2.07;;;;;;;3.06;60.32;98735.78;6219524;28;20215;-72
2022/01/15 14:42:13;;;;;;;2.40;1.90;;;;;;;2.93;60.71;98729.28;6203524;28;20223;-72
2022/01/15 14:45:17;;;;;;;2.47;1.80;;;;;;;2.78;61.06;98730.63;6204948;28;20232;-71
2022/01/15 14:48:22;;;;;;;4.23;2.07;;;;;;;2.60;61.89;98728.59;6205566;28;20597;-71
2022/01/15 14:51:24;;;;;;;2.80;2.30;;;;;;;2.37;62.18;98733.69;6204901;28;21022;-71
2022/01/15 14:54:31;;;;;;;6.47;2.27;;;;;;;2.17;63.05;98742.09;6206984;28;20601;-71